Latest Weather Observations for Giles*

IDW60801

Issued at 1:05 pm WST Friday 25 July 2014 (issued every 30 minutes, with the page automatically refreshed every 10 minutes)

About weather observations | Map of weather stations | Latest weather observations for WA | Other Formats
Station Details ID: 013017 Name: GILES METEOROLOGICAL OFFICE Lat: -25.03 Lon: 128.30 Height: 598.0 m
Data from the previous 72 hours. | See also: Recent months at Giles*

* Giles observations are collected in the South Australia time zone, which includes daylight saving in the summer period. Therefore, Rain since 9am value is with respect to South Australia local time.

Date/Time
WST
Temp
°C
App
Temp
°C
Dew
Point
Rel
Hum
%
Delta-T
°C
Wind Press
QNH
hPa
Press
MSL
hPa
Rain
since 9 am
mm
Dir
 
Spd
km/h
Gust
km/h
Spd
kts
Gust
kts
25/01:00pm 17.5 12.5 -4.4 22 8.9 SE 13 19 7 10 1022.8 - 0.0
25/12:30pm 17.0 12.0 -4.2 23 8.6 ESE 13 22 7 12 1023.1 - 0.0
25/12:00pm 16.1 10.9 -3.1 26 7.9 ESE 15 24 8 13 1023.6 - 0.0
25/11:30am 16.2 10.2 -3.3 26 8.0 SE 19 28 10 15 1024.1 - 0.0
25/11:00am 15.9 9.8 -2.7 28 7.7 SE 20 30 11 16 1024.7 - 0.0
25/10:30am 15.3 9.4 -2.6 29 7.4 ESE 19 30 10 16 1024.9 1024.3 0.0
25/10:00am 14.5 7.7 -2.2 31 6.9 SE 24 35 13 19 1025.3 - 0.0
25/09:30am 13.9 7.5 -1.4 35 6.4 SE 22 32 12 17 1025.7 - 0.0
25/09:00am 13.7 7.0 -1.1 36 6.2 SE 24 33 13 18 1025.4 - 0.0
25/08:30am 13.5 8.4 0.6 41 5.6 ESE 17 24 9 13 1025.2 - 0.0
25/08:00am 11.7 7.1 1.7 50 4.4 ESE 15 19 8 10 1024.9 - 0.0
25/07:30am 9.3 5.2 2.1 61 3.1 E 13 17 7 9 1024.2 1023.6 0.0
25/07:00am 6.3 2.1 1.5 71 2.0 E 13 15 7 8 1024.0 - 0.0
25/06:30am 3.4 -0.9 0.9 84 1.0 ESE 13 15 7 8 1024.0 - 0.0
25/06:00am 3.1 -1.2 0.8 85 0.9 ESE 13 15 7 8 1023.7 - 0.0
25/05:30am 3.6 -1.1 0.6 81 1.2 ESE 15 17 8 9 1023.2 - 0.0
25/05:00am 2.6 -1.5 0.0 83 1.0 ESE 11 13 6 7 1022.9 - 0.0
25/04:30am 4.0 -0.3 0.7 79 1.3 ESE 13 15 7 8 1022.5 1021.9 0.0
25/04:00am 4.9 0.2 0.9 75 1.6 ESE 15 19 8 10 1022.2 - 0.0
25/03:30am 4.5 -0.6 0.5 75 1.6 ESE 17 19 9 10 1022.3 - 0.0
25/03:00am 4.2 -0.2 0.4 76 1.5 SE 13 15 7 8 1022.5 - 0.0
25/02:30am 4.7 -0.1 0.4 74 1.7 SE 15 17 8 9 1022.1 - 0.0
25/02:00am 4.9 0.6 0.7 74 1.7 SE 13 15 7 8 1022.1 - 0.0
25/01:30am 5.5 1.2 1.1 73 1.8 SE 13 15 7 8 1021.8 1021.1 0.0
25/01:00am 5.4 1.1 0.7 72 1.9 SE 13 15 7 8 1021.7 - 0.0
25/12:30am 5.5 1.5 0.8 72 1.9 SSE 11 13 6 7 1021.8 - 0.0
25/12:00am 6.2 1.9 0.8 68 2.2 SSE 13 15 7 8 1021.6 - 0.0
 
Date/Time
WST
Temp
°C
App
Temp
°C
Dew
Point
Rel
Hum
%
Delta-T
°C
Wind Press
QNH
hPa
Press
MSL
hPa
Rain
since 9 am
mm
Dir
 
Spd
km/h
Gust
km/h
Spd
kts
Gust
kts
24/11:30pm 7.0 2.7 0.7 64 2.6 S 13 17 7 9 1021.5 - 0.0
24/11:00pm 8.0 3.2 0.5 59 3.1 S 15 17 8 9 1021.4 - 0.0
24/10:30pm 8.2 3.4 0.4 58 3.2 S 15 17 8 9 1021.3 1020.6 0.0
24/10:00pm 7.8 3.4 0.5 60 3.0 S 13 15 7 8 1021.4 - 0.0
24/09:30pm 7.6 3.1 0.0 58 3.1 S 13 15 7 8 1021.3 - 0.0
24/09:00pm 7.8 3.7 -0.4 56 3.3 S 11 15 6 8 1021.4 - 0.0
24/08:30pm 8.3 3.8 -0.6 53 3.6 S 13 15 7 8 1021.2 - 0.0
24/08:00pm 8.4 4.3 -0.5 53 3.6 S 11 15 6 8 1020.8 - 0.0
24/07:30pm 8.9 4.7 -0.7 51 3.9 S 11 11 6 6 1020.5 1019.8 0.0
24/07:00pm 9.5 5.7 -0.8 48 4.2 S 9 11 5 6 1020.2 - 0.0
24/06:30pm 10.3 6.1 -1.0 45 4.6 S 11 13 6 7 1019.8 - 0.0
24/06:00pm 11.3 6.7 -1.1 42 5.1 S 13 15 7 8 1019.5 - 0.0
24/05:30pm 12.2 8.0 -1.0 40 5.5 S 11 13 6 7 1019.3 - 0.0
24/05:00pm 13.9 9.2 -1.7 34 6.5 SSW 13 19 7 10 1019.0 - 0.0
24/04:30pm 15.3 10.1 -3.0 28 7.5 SW 15 22 8 12 1018.8 1018.1 0.0
24/04:00pm 16.5 11.3 -3.0 26 8.1 SSW 15 24 8 13 1018.6 - 0.0
24/03:30pm 16.2 10.1 -3.6 25 8.1 SW 19 30 10 16 1018.4 - 0.0
24/03:00pm 16.5 10.9 -3.0 26 8.1 SW 17 24 9 13 1018.3 - 0.0
24/02:30pm 16.7 11.5 -3.0 26 8.2 WSW 15 26 8 14 1018.3 - 0.0
24/02:00pm 17.0 11.3 -3.6 24 8.5 WSW 17 26 9 14 1018.3 - 0.0
24/01:30pm 16.6 11.2 -1.6 29 7.8 SSW 17 22 9 12 1018.5 1017.8 0.0
24/01:00pm 15.8 10.4 -1.2 31 7.3 SW 17 24 9 13 1018.8 - 0.0
24/12:30pm 15.3 10.2 -2.2 30 7.3 S 15 26 8 14 1018.9 - 0.0
24/12:00pm 14.9 10.3 -1.0 33 6.8 SW 13 24 7 13 1019.3 - 0.0
24/11:30am 15.0 10.5 -0.2 35 6.6 S 13 20 7 11 1019.7 - 0.0
24/11:00am 15.2 10.9 0.8 37 6.4 S 13 24 7 13 1020.2 - 0.0
24/10:30am 14.2 9.5 1.1 41 5.8 S 15 24 8 13 1020.7 1020.1 0.0
24/10:00am 13.8 8.8 1.4 43 5.5 SSE 17 30 9 16 1021.0 - 0.0
24/09:30am 13.2 8.8 2.6 48 4.8 SSE 15 22 8 12 1021.1 - 0.0
24/09:00am 11.9 7.2 3.1 55 4.0 SSE 17 24 9 13 1021.0 - 0.0
24/08:30am 11.3 6.4 3.9 60 3.4 SE 19 24 10 13 1020.8 - 0.0
24/08:00am 9.8 5.3 4.1 67 2.6 ESE 17 20 9 11 1020.6 - 0.0
24/07:30am 7.9 3.2 3.1 72 2.1 ESE 17 22 9 12 1020.2 1019.5 0.0
24/07:00am 6.3 1.9 2.5 77 1.6 ESE 15 17 8 9 1019.9 - 0.0
24/06:30am 1.8 -1.9 0.2 89 0.6 SE 9 11 5 6 1019.5 - 0.0
24/06:00am 3.5 0.4 1.5 87 0.8 SSE 7 9 4 5 1019.4 - 0.0
24/05:30am 3.7 0.6 1.2 84 1.0 SE 7 9 4 5 1019.0 - 0.0
24/05:00am 4.2 0.7 1.5 82 1.1 ESE 9 9 5 5 1018.7 - 0.0
24/04:30am 3.5 0.3 0.7 82 1.1 SSE 7 9 4 5 1018.5 1017.8 0.0
24/04:00am 3.6 0.6 0.8 82 1.1 SW 6 7 3 4 1018.4 - 0.0
24/03:30am 4.9 1.8 1.2 77 1.5 E 7 9 4 5 1018.1 - 0.0
24/03:00am 4.9 1.4 1.5 79 1.4 ESE 9 9 5 5 1017.9 - 0.0
24/02:30am 5.3 1.8 1.1 74 1.7 ESE 9 11 5 6 1018.0 - 0.0
24/02:00am 5.2 2.0 1.0 74 1.7 SE 7 9 4 5 1017.9 - 0.0
24/01:30am 5.9 2.7 0.7 69 2.1 SSE 7 9 4 5 1017.9 1017.2 0.0
24/01:00am 5.9 1.9 0.7 69 2.1 S 11 13 6 7 1017.9 - 0.0
24/12:30am 6.3 2.0 0.7 67 2.3 S 13 15 7 8 1017.8 - 0.0
24/12:00am 6.9 2.5 0.5 64 2.6 S 13 20 7 11 1018.0 - 0.0
 
Date/Time
WST
Temp
°C
App
Temp
°C
Dew
Point
Rel
Hum
%
Delta-T
°C
Wind Press
QNH
hPa
Press
MSL
hPa
Rain
since 9 am
mm
Dir
 
Spd
km/h
Gust
km/h
Spd
kts
Gust
kts
23/11:30pm 6.7 1.9 0.3 63 2.6 S 15 19 8 10 1018.2 - 0.0
23/11:00pm 6.6 4.3 0.2 63 2.6 S 2 7 1 4 1018.6 - 0.0
23/10:30pm 7.3 3.2 -0.4 58 3.1 S 11 13 6 7 1018.8 1018.1 0.0
23/10:00pm 7.6 5.3 0.6 61 2.9 SW 2 6 1 3 1018.9 - 0.0
23/09:30pm 8.8 5.0 -0.6 51 3.8 SSW 9 15 5 8 1018.9 - 0.0
23/09:00pm 7.6 4.7 -1.0 54 3.4 S 4 9 2 5 1018.7 - 0.0
23/08:30pm 9.0 4.7 -1.9 46 4.3 S 11 15 6 8 1018.4 - 0.0
23/08:00pm 9.3 5.4 -1.8 46 4.4 SSE 9 13 5 7 1018.3 - 0.0
23/07:30pm 9.4 5.0 -2.7 42 4.7 S 11 15 6 8 1018.4 1017.7 0.0
23/07:00pm 10.6 6.0 -4.1 35 5.6 SSW 11 13 6 7 1018.2 - 0.0
23/06:30pm 11.4 7.2 -4.3 33 6.0 S 9 11 5 6 1017.9 - 0.0
23/06:00pm 12.2 7.6 -4.4 31 6.4 SSW 11 11 6 6 1017.7 - 0.0
23/05:30pm 13.4 8.7 -5.0 27 7.1 SSW 11 13 6 7 1017.2 - 0.0
23/05:00pm 15.1 10.4 -5.0 24 7.9 SW 11 13 6 7 1016.9 - 0.0
23/04:30pm 16.8 11.2 -6.9 19 9.1 SSW 15 22 8 12 1016.6 1015.9 0.0
23/04:00pm 17.8 12.1 -8.0 16 9.8 WSW 15 22 8 12 1016.3 - 0.0
23/03:30pm 18.4 12.7 -7.0 17 9.9 SW 15 26 8 14 1016.4 - 0.0
23/03:00pm 18.7 12.6 -4.3 20 9.5 W 19 30 10 16 1016.5 - 0.0
23/02:30pm 18.8 13.2 -3.1 22 9.3 W 17 28 9 15 1016.5 - 0.0
23/02:00pm 18.7 12.7 -2.9 23 9.2 W 19 30 10 16 1016.5 - 0.0
23/01:30pm 17.8 12.7 -2.0 26 8.5 WSW 15 30 8 16 1016.5 1015.8 0.0
23/01:00pm 17.6 12.8 -0.1 30 7.9 W 15 30 8 16 1016.9 - 0.0
23/12:30pm 17.2 12.0 -0.1 31 7.7 W 17 30 9 16 1017.4 - 0.0
23/12:00pm 17.0 11.9 0.9 33 7.3 W 17 24 9 13 1017.8 - 0.0
23/11:30am 16.3 10.9 1.3 36 6.8 WSW 19 30 10 16 1018.3 - 0.0
23/11:00am 15.7 11.5 1.6 38 6.4 SW 13 19 7 10 1018.7 - 0.0
23/10:30am 15.4 10.7 0.8 37 6.5 SW 15 22 8 12 1019.2 1018.5 0.0
23/10:00am 14.3 9.7 1.6 42 5.7 SSW 15 22 8 12 1019.8 - 0.0
23/09:30am 13.5 9.1 2.8 48 4.9 S 15 20 8 11 1020.2 - 0.0
23/09:00am 13.5 8.8 3.3 50 4.7 SSW 17 24 9 13 1020.2 - 0.0
23/08:30am 12.1 7.2 4.9 61 3.4 SSW 20 26 11 14 1020.2 - 0.0
23/08:00am 11.5 7.9 6.6 72 2.4 S 15 20 8 11 1020.0 - 0.0
23/07:30am 10.2 7.7 8.0 86 1.1 SSW 11 15 6 8 1020.0 1019.3 0.0
23/07:00am 9.4 7.4 8.6 95 0.4 SW 9 13 5 7 1019.9 - 0.0
23/06:30am 8.8 7.1 8.4 97 0.2 S 7 13 4 7 1019.0 - 0.0
23/06:00am 9.2 7.2 8.8 97 0.2 SSW 9 13 5 7 1018.9 - 0.0
23/05:30am 9.6 7.0 9.2 97 0.2 SW 13 17 7 9 1018.7 - 0.0
23/05:00am 10.3 7.0 9.5 95 0.4 SW 17 24 9 13 1018.3 - 0.0
23/04:30am 11.0 7.2 9.9 93 0.6 SW 20 30 11 16 1017.8 1017.1 0.0
23/04:00am 11.2 9.7 10.6 96 0.3 W 9 11 5 6 1017.2 - 0.0
23/03:30am 11.3 9.5 10.7 96 0.3 W 11 11 6 6 1017.2 - 0.0
23/03:00am 11.4 9.5 10.5 94 0.5 WNW 11 13 6 7 1017.4 - 0.0
23/02:30am 11.7 9.8 10.4 92 0.7 W 11 15 6 8 1017.5 - 0.0
23/02:00am 11.8 9.8 10.3 90 0.8 W 11 13 6 7 1017.6 - 0.0
23/01:30am 12.2 10.1 9.9 86 1.2 W 11 13 6 7 1017.6 1016.8 0.0
23/01:00am 12.1 10.3 9.6 85 1.3 W 9 11 5 6 1017.7 - 0.0
23/12:30am 12.8 11.0 9.6 81 1.7 W 9 11 5 6 1017.9 - 0.0
23/12:00am 13.5 11.7 9.3 76 2.2 WNW 9 13 5 7 1017.9 - 0.0
 
Date/Time
WST
Temp
°C
App
Temp
°C
Dew
Point
Rel
Hum
%
Delta-T
°C
Wind Press
QNH
hPa
Press
MSL
hPa
Rain
since 9 am
mm
Dir
 
Spd
km/h
Gust
km/h
Spd
kts
Gust
kts
22/11:30pm 13.9 12.0 9.1 73 2.5 NW 9 11 5 6 1017.9 - 0.0
22/11:00pm 14.5 12.3 9.2 70 2.8 WNW 11 13 6 7 1018.0 - 0.0
22/10:30pm 13.7 11.9 9.3 75 2.3 W 9 13 5 7 1017.9 1017.2 0.0
22/10:00pm 14.4 13.0 9.5 72 2.6 WNW 7 9 4 5 1018.0 - 0.0
22/09:30pm 15.1 14.0 9.9 71 2.8 W 6 7 3 4 1018.1 - 0.0
22/09:00pm 15.9 14.0 9.1 64 3.6 NW 9 13 5 7 1018.2 - 0.0
22/08:30pm 15.8 14.3 9.0 64 3.6 NW 7 9 4 5 1018.2 - 0.0
22/08:00pm 15.8 13.4 8.8 63 3.7 N 11 13 6 7 1017.9 - 0.0
22/07:30pm 15.7 14.1 8.9 64 3.6 NNW 7 7 4 4 1017.9 1017.2 0.0
22/07:00pm 16.3 13.8 8.3 59 4.2 NNW 11 11 6 6 1018.0 - 0.0
22/06:30pm 15.9 13.5 8.7 62 3.8 WNW 11 13 6 7 1018.1 - 0.0
22/06:00pm 16.8 14.1 7.3 53 4.9 WNW 11 19 6 10 1017.2 - 0.0
22/05:30pm 17.0 14.2 6.8 51 5.2 N 11 15 6 8 1016.9 - 0.0
22/05:00pm 17.8 13.6 5.6 44 6.1 NNW 17 19 9 10 1016.7 - 0.0
22/04:30pm 17.8 13.7 6.4 47 5.8 NNW 17 20 9 11 1016.6 1015.9 0.0
22/04:00pm 17.7 14.5 7.0 49 5.5 N 13 19 7 10 1016.6 - 0.0
22/03:30pm 17.2 15.1 8.3 56 4.7 NNW 9 13 5 7 1016.9 - 0.0
22/03:00pm 17.5 14.7 8.4 55 4.8 NW 13 22 7 12 1017.1 - 0.0
22/02:30pm 17.9 14.7 8.5 54 5.0 NW 15 20 8 11 1017.5 - 0.0
22/02:00pm 18.8 14.7 6.3 44 6.4 N 17 22 9 12 1016.7 - 0.0
22/01:30pm 18.4 13.7 6.2 45 6.2 N 20 32 11 17 1017.2 1016.5 0.0
22/01:00pm 18.6 14.5 6.0 43 6.4 N 17 24 9 13 1017.0 - 0.0
22/12:30pm 18.6 14.4 5.7 42 6.5 N 17 22 9 12 1017.4 - 0.0
22/12:00pm 19.0 13.0 3.2 35 7.6 N 24 32 13 17 1018.0 - 0.0

Other Formats:

Comma delimited format used in spreadsheet applications
http://www.bom.gov.au/fwo/IDW60801/IDW60801.94461.axf

JavaScript Object Notation format (JSON) in row-major order
http://www.bom.gov.au/fwo/IDW60801/IDW60801.94461.json